createdAt,value
2018-11-25T00:01:27.153Z,95694.02
2018-11-25T00:03:57.972Z,95693.80
2018-11-25T00:06:28.737Z,95697.69
2018-11-25T00:08:55.830Z,95692.48
2018-11-25T00:11:44.379Z,95690.35
2018-11-25T00:14:15.472Z,95685.80
2018-11-25T00:16:44.867Z,95680.15
2018-11-25T00:19:33.391Z,95681.72
2018-11-25T00:22:02.799Z,95678.49
2018-11-25T00:24:54.544Z,95683.62
2018-11-25T00:27:26.371Z,95688.05
2018-11-25T00:30:16.946Z,95679.61
2018-11-25T00:32:48.421Z,95682.94
2018-11-25T00:35:17.686Z,95682.50
2018-11-25T00:37:48.618Z,95679.55
2018-11-25T00:40:35.079Z,95677.71
2018-11-25T00:43:04.114Z,95673.57
2018-11-25T00:45:33.023Z,95668.51
2018-11-25T00:48:21.494Z,95664.59
2018-11-25T00:56:26.730Z,95663.89
2018-11-25T00:58:55.638Z,95668.95
2018-11-25T01:01:44.140Z,95666.83
2018-11-25T01:04:13.152Z,95665.03
2018-11-25T01:06:42.053Z,95664.30
2018-11-25T01:09:11.338Z,95666.28
2018-11-25T01:11:52.634Z,95656.95
2018-11-25T01:14:33.308Z,95663.12
2018-11-25T01:17:04.596Z,95660.59
2018-11-25T01:19:33.568Z,95654.20
2018-11-25T01:22:22.040Z,95656.52
2018-11-25T01:24:51.029Z,95659.89
2018-11-25T01:27:20.341Z,95649.25
2018-11-25T01:29:49.303Z,95652.19
2018-11-25T01:32:37.858Z,95654.42
2018-11-25T01:35:08.550Z,95653.25
2018-11-25T01:37:37.465Z,95653.18
2018-11-25T01:40:26.056Z,95653.14
2018-11-25T01:42:54.978Z,95651.16
2018-11-25T01:45:23.954Z,95649.32
2018-11-25T01:47:52.864Z,95651.67
2018-11-25T01:50:22.304Z,95646.05
2018-11-25T01:52:51.266Z,95647.59
2018-11-25T01:55:39.718Z,95638.17
2018-11-25T01:58:08.706Z,95642.42
2018-11-25T02:00:37.732Z,95640.44
2018-11-25T02:03:07.331Z,95632.92
2018-11-25T02:05:55.812Z,95630.41
2018-11-25T02:08:24.788Z,95631.73
2018-11-25T02:10:54.001Z,95630.67
2018-11-25T02:13:42.846Z,95620.91
2018-11-25T02:16:12.184Z,95628.80
2018-11-25T02:18:41.094Z,95617.64
2018-11-25T02:21:12.993Z,95622.86
2018-11-25T02:24:01.778Z,95614.20
2018-11-25T02:26:31.151Z,95613.09
2018-11-25T02:29:00.101Z,95611.48
2018-11-25T02:31:49.015Z,95614.20
2018-11-25T02:34:18.408Z,95607.47
2018-11-25T02:36:47.700Z,95600.78
2018-11-25T02:39:17.099Z,95589.04
2018-11-25T02:42:06.027Z,95589.71
2018-11-25T02:44:35.364Z,95588.35
2018-11-25T02:47:04.712Z,95591.44
2018-11-25T02:49:53.209Z,95588.28
2018-11-25T02:52:22.744Z,95588.58
2018-11-25T02:54:51.704Z,95585.20
2018-11-25T02:57:39.807Z,95574.63
2018-11-25T03:00:11.891Z,95569.56
2018-11-25T03:02:41.335Z,95573.45
2018-11-25T03:05:10.238Z,95567.66
2018-11-25T03:07:58.760Z,95561.12
2018-11-25T03:10:28.087Z,95562.81
2018-11-25T03:12:57.402Z,95564.91
2018-11-25T03:15:26.297Z,95564.72
2018-11-25T03:18:14.827Z,95566.33
2018-11-25T03:20:44.123Z,95558.41
2018-11-25T03:23:13.105Z,95554.89
2018-11-25T03:25:42.343Z,95556.73
2018-11-25T03:28:31.178Z,95555.70
2018-11-25T03:31:00.649Z,95557.49
2018-11-25T03:33:29.586Z,95553.69
2018-11-25T03:36:18.401Z,95553.33
2018-11-25T03:38:47.761Z,95553.51
2018-11-25T03:41:16.724Z,95557.96
2018-11-25T03:43:46.073Z,95546.52
2018-11-25T03:46:34.530Z,95550.26
2018-11-25T03:49:03.460Z,95548.98
2018-11-25T03:51:32.785Z,95541.61
2018-11-25T03:54:01.677Z,95536.11
2018-11-25T03:56:50.533Z,95535.40
2018-11-25T03:59:21.819Z,95543.80
2018-11-25T04:01:51.197Z,95540.63
2018-11-25T04:04:40.104Z,95537.88
2018-11-25T04:07:28.053Z,95531.05
2018-11-25T04:09:56.991Z,95529.38
2018-11-25T04:12:45.499Z,95529.82
2018-11-25T04:15:34.469Z,95525.82
2018-11-25T04:18:03.492Z,95529.95
2018-11-25T04:20:51.697Z,95536.39
2018-11-25T04:23:20.678Z,95536.68
2018-11-25T04:25:50.039Z,95535.30
2018-11-25T04:28:38.507Z,95538.88
2018-11-25T04:31:27.091Z,95537.91
2018-11-25T04:33:56.032Z,95544.67
2018-11-25T04:36:44.217Z,95536.01
2018-11-25T04:39:13.641Z,95532.34
2018-11-25T04:41:42.571Z,95534.63
2018-11-25T04:44:31.404Z,95539.63
2018-11-25T04:47:00.451Z,95535.77
2018-11-25T04:49:31.575Z,95530.95
2018-11-25T04:52:00.568Z,95534.34
2018-11-25T04:54:49.518Z,95532.22
2018-11-25T04:57:18.446Z,95526.57
2018-11-25T04:59:47.385Z,95526.41
2018-11-25T05:02:16.772Z,95522.09
2018-11-25T05:05:06.215Z,95526.57
2018-11-25T05:07:35.179Z,95516.77
2018-11-25T05:10:04.407Z,95516.70
2018-11-25T05:12:33.740Z,95520.09
2018-11-25T05:15:22.498Z,95517.80
2018-11-25T05:17:51.988Z,95508.30
2018-11-25T05:20:21.763Z,95511.19
2018-11-25T05:23:10.586Z,95508.84
2018-11-25T05:25:39.951Z,95511.75
2018-11-25T05:28:09.289Z,95510.09
2018-11-25T05:30:38.583Z,95512.00
2018-11-25T05:33:20.170Z,95513.84
2018-11-25T05:36:01.453Z,95518.55
2018-11-25T05:38:30.372Z,95515.90
2018-11-25T05:40:59.707Z,95508.55
2018-11-25T05:43:48.191Z,95501.17
2018-11-25T05:46:17.241Z,95503.01
2018-11-25T05:48:46.578Z,95502.78
2018-11-25T05:51:15.485Z,95498.82
2018-11-25T05:54:03.974Z,95500.20
2018-11-25T05:56:33.413Z,95501.59
2018-11-25T05:59:02.326Z,95505.14
2018-11-25T06:01:32.463Z,95509.68
2018-11-25T06:04:21.385Z,95506.81
2018-11-25T06:06:50.400Z,95513.94
2018-11-25T06:09:19.286Z,95514.45
2018-11-25T06:12:07.775Z,95513.94
2018-11-25T06:14:37.169Z,95513.71
2018-11-25T06:17:06.576Z,95514.52
2018-11-25T06:19:37.832Z,95503.75
2018-11-25T06:22:26.319Z,95511.97
2018-11-25T06:24:55.428Z,95512.27
2018-11-25T06:27:24.686Z,95512.27
2018-11-25T06:30:35.339Z,95509.10
2018-11-25T06:33:07.097Z,95513.94
2018-11-25T06:35:36.072Z,95517.91
2018-11-25T06:38:24.520Z,95520.34
2018-11-25T06:40:53.899Z,95525.64
2018-11-25T06:43:22.892Z,95523.80
2018-11-25T06:45:51.805Z,95526.80
2018-11-25T06:48:40.660Z,95529.44
2018-11-25T06:51:09.731Z,95527.60
2018-11-25T06:53:45.203Z,95527.83
2018-11-25T06:56:19.077Z,95529.89
2018-11-25T06:58:48.411Z,95533.57
2018-11-25T07:01:17.666Z,95532.09
2018-11-25T07:04:06.152Z,95534.22
2018-11-25T07:06:35.249Z,95537.18
2018-11-25T07:09:05.378Z,95527.12
2018-11-25T07:11:34.366Z,95524.25
2018-11-25T07:14:22.824Z,95524.02
2018-11-25T07:16:51.878Z,95523.34
2018-11-25T07:19:21.235Z,95525.84
2018-11-25T07:21:50.544Z,95522.55
2018-11-25T07:24:39.071Z,95524.73
2018-11-25T07:27:08.414Z,95534.59
2018-11-25T07:29:37.367Z,95533.48
2018-11-25T07:32:06.593Z,95532.85
2018-11-25T07:34:54.776Z,95537.42
2018-11-25T07:38:03.015Z,95539.47
2018-11-25T07:40:32.370Z,95539.66
2018-11-25T07:43:20.947Z,95534.50
2018-11-25T07:45:51.140Z,95534.90
2018-11-25T07:48:20.135Z,95543.16
2018-11-25T07:51:08.621Z,95539.18
2018-11-25T07:53:38.045Z,95538.12
2018-11-25T07:56:07.402Z,95534.69
2018-11-25T07:58:36.780Z,95537.05
2018-11-25T08:01:25.723Z,95539.39
2018-11-25T08:06:43.109Z,95532.89
2018-11-25T08:09:12.057Z,95538.24
2018-11-25T08:11:40.939Z,95537.44
2018-11-25T08:14:13.316Z,95536.74
2018-11-25T08:16:42.634Z,95533.65
2018-11-25T08:19:11.975Z,95531.13
2018-11-25T08:22:00.466Z,95529.19
2018-11-25T08:24:29.771Z,95529.36
2018-11-25T08:26:59.095Z,95529.34
2018-11-25T08:29:28.426Z,95527.61
2018-11-25T08:32:17.229Z,95527.87
2018-11-25T08:34:46.570Z,95535.94
2018-11-25T08:37:15.796Z,95525.59
2018-11-25T08:39:45.096Z,95526.53
2018-11-25T08:42:33.821Z,95526.10
2018-11-25T08:45:02.750Z,95523.73
2018-11-25T08:47:34.011Z,95524.37
2018-11-25T08:50:22.855Z,95532.38
2018-11-25T08:52:52.817Z,95524.70
2018-11-25T08:55:23.242Z,95527.51
2018-11-25T08:58:19.306Z,95528.70
2018-11-25T09:00:49.110Z,95526.37
2018-11-25T09:03:40.395Z,95527.25
2018-11-25T09:06:18.072Z,95532.00
2018-11-25T09:11:54.201Z,95523.47
2018-11-25T09:14:38.671Z,95528.05
2018-11-25T09:17:20.046Z,95526.28
2018-11-25T09:19:49.324Z,95519.76
2018-11-25T09:22:18.265Z,95522.48
2018-11-25T09:25:08.414Z,95523.28
2018-11-25T09:27:37.400Z,95515.94
2018-11-25T09:30:28.338Z,95510.47
2018-11-25T09:32:57.721Z,95507.06
2018-11-25T09:35:26.813Z,95510.06
2018-11-25T09:37:55.817Z,95508.52
2018-11-25T09:40:44.825Z,95505.08
2018-11-25T09:43:13.343Z,95520.16
2018-11-25T09:45:42.287Z,95509.43
2018-11-25T09:48:50.014Z,95512.58
2018-11-25T09:51:19.470Z,95508.25
2018-11-25T09:56:39.337Z,95503.73
2018-11-25T09:59:08.583Z,95500.80
2018-11-25T10:01:37.452Z,95500.55
2018-11-25T10:04:26.287Z,95499.75
2018-11-25T10:06:55.247Z,95496.33
2018-11-25T10:09:24.258Z,95498.42
2018-11-25T10:12:12.297Z,95501.28
2018-11-25T10:14:45.368Z,95493.02
2018-11-25T10:17:13.413Z,95492.24
2018-11-25T10:20:01.879Z,95487.98
2018-11-25T10:22:31.293Z,95478.94
2018-11-25T10:25:00.638Z,95479.77
2018-11-25T10:27:29.611Z,95476.53
2018-11-25T10:30:18.987Z,95466.70
2018-11-25T10:32:49.425Z,95465.89
2018-11-25T10:35:18.343Z,95465.69
2018-11-25T10:37:50.198Z,95451.33
2018-11-25T10:40:38.656Z,95460.16
2018-11-25T10:43:07.925Z,95453.27
2018-11-25T10:45:36.858Z,95444.53
2018-11-25T10:48:25.383Z,95442.66
2018-11-25T10:50:54.285Z,95442.14
2018-11-25T10:53:23.616Z,95444.82
2018-11-25T10:55:52.579Z,95439.50
2018-11-25T10:58:41.031Z,95440.59
2018-11-25T11:01:28.968Z,95444.83
2018-11-25T11:03:58.895Z,95437.94
2018-11-25T11:07:06.268Z,95436.59
2018-11-25T11:09:53.665Z,95438.98
2018-11-25T11:12:20.746Z,95432.09
2018-11-25T11:15:11.108Z,95437.19
2018-11-25T11:17:40.083Z,95436.64
2018-11-25T11:20:10.615Z,95430.30
2018-11-25T11:23:01.677Z,95424.43
2018-11-25T11:25:32.268Z,95418.83
2018-11-25T11:28:01.196Z,95422.04
2018-11-25T11:30:50.001Z,95412.17
2018-11-25T11:33:19.144Z,95417.27
2018-11-25T11:35:48.005Z,95412.23
2018-11-25T11:38:36.470Z,95413.55
2018-11-25T11:41:25.030Z,95406.88
2018-11-25T11:43:53.976Z,95403.95
2018-11-25T11:52:29.375Z,95398.93
2018-11-25T11:55:21.273Z,95393.34
2018-11-25T11:57:54.972Z,95393.63
2018-11-25T12:03:16.346Z,95390.42
2018-11-25T12:08:36.349Z,95387.25
2018-11-25T12:11:27.139Z,95389.95
2018-11-25T12:13:56.134Z,95378.78
2018-11-25T12:16:25.415Z,95379.05
2018-11-25T12:19:14.258Z,95372.40
2018-11-25T12:21:43.198Z,95366.80
2018-11-25T12:24:12.069Z,95373.99
2018-11-25T12:26:41.006Z,95378.27
2018-11-25T12:32:17.789Z,95369.69
2018-11-25T12:34:47.365Z,95367.28
2018-11-25T12:37:36.498Z,95361.97
2018-11-25T12:40:09.865Z,95360.38
2018-11-25T12:42:59.365Z,95360.64
2018-11-25T12:45:28.713Z,95364.39
2018-11-25T12:51:24.062Z,95371.83
2018-11-25T12:54:11.948Z,95364.14
2018-11-25T12:56:44.050Z,95362.25
2018-11-25T12:59:15.102Z,95358.51
2018-11-25T13:01:44.094Z,95354.23
2018-11-25T13:07:13.277Z,95352.90
2018-11-25T13:12:17.767Z,95338.78
2018-11-25T13:15:06.196Z,95336.09
2018-11-25T13:17:35.241Z,95339.58
2018-11-25T13:20:23.444Z,95336.36
2018-11-25T13:22:52.338Z,95335.84
2018-11-25T13:25:26.796Z,95331.57
2018-11-25T13:27:56.121Z,95325.71
2018-11-25T13:30:47.014Z,95328.37
2018-11-25T13:33:36.605Z,95330.23
2018-11-25T13:36:07.473Z,95328.61
2018-11-25T13:38:59.371Z,95327.52
2018-11-25T13:41:28.345Z,95329.08
2018-11-25T13:43:57.689Z,95329.58
2018-11-25T13:46:46.224Z,95326.35
2018-11-25T13:49:34.476Z,95325.80
2018-11-25T13:52:03.813Z,95326.01
2018-11-25T13:55:10.870Z,95328.05
2018-11-25T13:57:40.274Z,95324.00
2018-11-25T14:00:38.317Z,95324.25
2018-11-25T14:03:12.812Z,95325.28
2018-11-25T14:08:52.762Z,95318.27
2018-11-25T14:11:22.256Z,95323.78
2018-11-25T14:13:51.144Z,95323.45
2018-11-25T14:16:42.324Z,95320.50
2018-11-25T14:19:11.734Z,95319.92
2018-11-25T14:21:40.696Z,95319.81
2018-11-25T14:24:29.845Z,95319.45
2018-11-25T14:27:00.475Z,95316.19
2018-11-25T14:29:30.170Z,95323.75
2018-11-25T14:31:59.515Z,95323.97
2018-11-25T14:34:48.080Z,95325.22
2018-11-25T14:37:35.841Z,95322.75
2018-11-25T14:40:43.560Z,95333.01
2018-11-25T14:43:12.856Z,95324.38
2018-11-25T14:45:41.751Z,95327.64
2018-11-25T14:48:11.072Z,95326.19
2018-11-25T14:51:02.594Z,95327.39
2018-11-25T14:53:36.252Z,95324.33
2018-11-25T14:56:00.871Z,95326.00
2018-11-25T14:58:49.758Z,95327.80
2018-11-25T15:01:19.099Z,95314.73
2018-11-25T15:03:48.934Z,95315.39
2018-11-25T15:06:37.438Z,95316.87
2018-11-25T15:09:10.104Z,95316.58
2018-11-25T15:14:46.659Z,95317.89
2018-11-25T15:17:16.081Z,95314.05
2018-11-25T15:19:45.481Z,95314.17
2018-11-25T15:22:34.245Z,95314.96
2018-11-25T15:25:03.277Z,95320.25
2018-11-25T15:27:32.275Z,95322.23
2018-11-25T15:30:01.531Z,95312.91
2018-11-25T15:32:34.121Z,95321.31
2018-11-25T15:35:03.344Z,95309.05
2018-11-25T15:38:13.070Z,95317.70
2018-11-25T15:40:42.357Z,95314.41
2018-11-25T15:43:12.160Z,95314.57
2018-11-25T15:46:01.018Z,95312.63
2018-11-25T15:48:33.706Z,95310.42
2018-11-25T15:51:03.025Z,95318.83
2018-11-25T15:53:55.984Z,95314.78
2018-11-25T15:56:25.467Z,95310.38
2018-11-25T15:58:59.426Z,95305.29
2018-11-25T16:01:32.357Z,95307.88
2018-11-25T16:04:03.507Z,95320.22
2018-11-25T16:06:34.658Z,95322.46
2018-11-25T16:09:03.766Z,95313.59
2018-11-25T16:11:51.907Z,95309.54
2018-11-25T16:14:40.436Z,95316.75
2018-11-25T16:17:09.496Z,95313.41
2018-11-25T16:19:38.444Z,95321.77
2018-11-25T16:22:27.264Z,95322.45
2018-11-25T16:24:56.584Z,95320.75
2018-11-25T16:27:26.148Z,95316.98
2018-11-25T16:29:55.474Z,95327.38
2018-11-25T16:32:44.569Z,95318.61
2018-11-25T16:35:15.817Z,95311.66
2018-11-25T16:37:45.062Z,95309.73
2018-11-25T16:40:35.687Z,95305.64
2018-11-25T16:43:23.879Z,95306.36
2018-11-25T16:45:54.296Z,95302.78
2018-11-25T16:48:42.581Z,95295.00
2018-11-25T16:51:12.144Z,95296.67
2018-11-25T16:53:58.972Z,95296.47
2018-11-25T16:56:30.868Z,95304.06
2018-11-25T16:58:59.821Z,95309.50
2018-11-25T17:01:28.899Z,95313.97
2018-11-25T17:03:58.439Z,95313.35
2018-11-25T17:06:27.600Z,95318.85
2018-11-25T17:08:57.575Z,95315.12
2018-11-25T17:11:46.290Z,95319.81
2018-11-25T17:14:15.481Z,95315.34
2018-11-25T17:16:51.771Z,95312.41
2018-11-25T17:19:21.108Z,95306.45
2018-11-25T17:22:10.145Z,95312.13
2018-11-25T17:24:41.971Z,95304.08
2018-11-25T17:27:13.474Z,95302.52
2018-11-25T17:29:42.775Z,95302.23
2018-11-25T17:32:31.653Z,95305.78
2018-11-25T17:35:01.083Z,95305.37
2018-11-25T17:37:30.104Z,95297.10
2018-11-25T17:39:59.020Z,95293.48
2018-11-25T17:42:51.313Z,95294.43
2018-11-25T17:45:37.858Z,95300.22
2018-11-25T17:48:26.151Z,95298.41
2018-11-25T17:51:15.974Z,95309.50
2018-11-25T17:54:04.159Z,95309.08
2018-11-25T17:56:33.614Z,95308.95
2018-11-25T17:59:02.548Z,95319.70
2018-11-25T18:04:58.788Z,95320.68
2018-11-25T18:07:29.262Z,95320.52
2018-11-25T18:09:58.236Z,95324.56
2018-11-25T18:12:33.871Z,95327.41
2018-11-25T18:15:02.884Z,95330.26
2018-11-25T18:17:32.015Z,95322.31
2018-11-25T18:23:14.513Z,95331.95
2018-11-25T18:28:37.621Z,95328.06
2018-11-25T18:31:28.314Z,95322.75
2018-11-25T18:33:57.601Z,95321.06
2018-11-25T18:36:46.091Z,95321.73
2018-11-25T18:39:15.858Z,95320.84
2018-11-25T18:42:04.477Z,95317.48
2018-11-25T18:44:34.247Z,95319.23
2018-11-25T18:47:06.249Z,95317.69
2018-11-25T18:49:36.095Z,95318.41
2018-11-25T18:52:27.462Z,95322.27
2018-11-25T18:57:45.124Z,95319.94
2018-11-25T19:00:55.638Z,95320.73
2018-11-25T19:03:24.994Z,95312.97
2018-11-25T19:05:54.328Z,95310.85
2018-11-25T19:08:23.976Z,95316.88
2018-11-25T19:11:15.728Z,95312.48
2018-11-25T19:13:45.817Z,95317.98
2018-11-25T19:16:21.670Z,95309.04
2018-11-25T19:18:44.681Z,95314.77
2018-11-25T19:21:33.611Z,95313.23
2018-11-25T19:24:26.726Z,95320.92
2018-11-25T19:26:54.287Z,95317.98
2018-11-25T19:29:42.537Z,95315.92
2018-11-25T19:32:11.693Z,95319.01
2018-11-25T19:37:29.216Z,95320.33
2018-11-25T19:39:58.503Z,95317.19
2018-11-25T19:42:47.293Z,95317.48
2018-11-25T19:45:36.400Z,95318.34
2018-11-25T19:48:06.368Z,95313.37
2018-11-25T19:50:57.040Z,95308.83
2018-11-25T19:53:25.353Z,95305.13
2018-11-25T19:55:55.016Z,95303.52
2018-11-25T19:58:43.826Z,95307.52
2018-11-25T20:01:13.166Z,95307.30
2018-11-25T20:03:45.311Z,95304.75
2018-11-25T20:06:36.678Z,95308.77
2018-11-25T20:09:09.058Z,95314.55
2018-11-25T20:11:38.339Z,95319.84
2018-11-25T20:14:10.779Z,95316.69
2018-11-25T20:17:18.373Z,95306.03
2018-11-25T20:19:50.568Z,95316.08
2018-11-25T20:22:38.891Z,95320.39
2018-11-25T20:25:09.841Z,95326.16
2018-11-25T20:27:58.333Z,95332.64
2018-11-25T20:31:06.203Z,95329.05
2018-11-25T20:33:54.923Z,95323.86
2018-11-25T20:36:24.189Z,95326.55
2018-11-25T20:39:15.095Z,95324.78
2018-11-25T20:41:45.964Z,95329.44
2018-11-25T20:44:15.738Z,95326.58
2018-11-25T20:47:09.534Z,95320.42
2018-11-25T20:49:39.248Z,95322.55
2018-11-25T20:52:27.708Z,95316.98
2018-11-25T20:54:57.066Z,95311.94
2018-11-25T20:57:26.047Z,95319.88
2018-11-25T20:59:55.073Z,95312.56
2018-11-25T21:02:46.145Z,95309.22
2018-11-25T21:05:18.287Z,95313.87
2018-11-25T21:13:45.937Z,95313.69
2018-11-25T21:16:37.115Z,95316.62
2018-11-25T21:19:07.159Z,95306.30
2018-11-25T21:21:36.544Z,95306.45
2018-11-25T21:24:06.254Z,95305.64
2018-11-25T21:26:55.296Z,95301.79
2018-11-25T21:29:24.744Z,95308.02
2018-11-25T21:31:54.300Z,95302.62
2018-11-25T21:34:23.745Z,95303.84
2018-11-25T21:37:12.248Z,95316.72
2018-11-25T21:39:41.287Z,95317.53
2018-11-25T21:42:11.102Z,95317.34
2018-11-25T21:45:00.005Z,95321.78
2018-11-25T21:47:29.487Z,95313.95
2018-11-25T21:49:58.472Z,95312.19
2018-11-25T21:52:29.952Z,95310.88
2018-11-25T21:55:19.017Z,95313.20
2018-11-25T21:57:48.090Z,95317.64
2018-11-25T22:00:19.286Z,95314.92
2018-11-25T22:03:11.097Z,95307.14
2018-11-25T22:05:39.732Z,95304.83
2018-11-25T22:08:14.382Z,95305.58
2018-11-25T22:10:43.326Z,95310.11
2018-11-25T22:13:12.672Z,95308.55
2018-11-25T22:15:43.682Z,95303.80
2018-11-25T22:18:10.898Z,95305.83
2018-11-25T22:20:40.217Z,95299.61
2018-11-25T22:23:09.642Z,95298.50
2018-11-25T22:28:27.432Z,95313.44
2018-11-25T22:31:16.472Z,95312.73
2018-11-25T22:33:48.570Z,95314.55
2018-11-25T22:36:18.084Z,95315.77
2018-11-25T22:38:59.594Z,95314.95
2018-11-25T22:41:41.051Z,95318.69
2018-11-25T22:44:10.488Z,95322.02
2018-11-25T22:46:39.478Z,95318.48
2018-11-25T22:49:31.177Z,95326.77
2018-11-25T22:52:07.451Z,95325.55
2018-11-25T22:54:36.735Z,95324.20
2018-11-25T22:57:25.687Z,95324.46
2018-11-25T22:59:55.102Z,95322.60
2018-11-25T23:02:24.495Z,95318.55
2018-11-25T23:05:31.878Z,95314.51
2018-11-25T23:10:49.190Z,95313.24
2018-11-25T23:13:58.165Z,95298.04
2018-11-25T23:16:27.154Z,95291.56
2018-11-25T23:18:56.153Z,95285.78
2018-11-25T23:21:44.691Z,95279.91
2018-11-25T23:24:14.213Z,95281.45
2018-11-25T23:26:43.561Z,95277.25
2018-11-25T23:29:15.412Z,95276.72
2018-11-25T23:32:04.041Z,95280.59
2018-11-25T23:34:32.955Z,95286.15
2018-11-25T23:37:02.294Z,95283.31
2018-11-25T23:39:50.920Z,95282.95
2018-11-25T23:42:20.159Z,95283.91
2018-11-25T23:45:11.639Z,95284.59
2018-11-25T23:50:48.236Z,95278.05
2018-11-25T23:53:36.732Z,95282.05
2018-11-25T23:56:06.056Z,95286.68
2018-11-25T23:58:35.351Z,95281.81
